Time;durP1;ratioP1;P1;durP2;ratioP2;P2;SDS_P1;SDS_P2;PMS_P1;PMS_P2;Temp;Humidity;BMP_temperature;BMP_pressure;BME280_temperature;BME280_humidity;BME280_pressure;Samples;Min_cycle;Max_cycle;Signal;HPM_P1;HPM_P2
2023/11/04 00:02:24;;;;;;;5.97;3.38;;;8.60;99.90;;;;;;4984141;28;20216;-71
2023/11/04 00:04:51;;;;;;;10.90;4.38;;;8.60;99.90;;;;;;4979981;28;20226;-70
2023/11/04 00:07:18;;;;;;;7.75;3.90;;;8.50;99.90;;;;;;4986275;28;20222;-73
2023/11/04 00:09:45;;;;;;;6.45;3.33;;;8.40;99.90;;;;;;4979886;28;20210;-72
2023/11/04 00:12:12;;;;;;;10.95;4.40;;;8.40;99.90;;;;;;4978725;28;20629;-70
2023/11/04 00:14:40;;;;;;;11.13;3.20;;;8.30;99.90;;;;;;4978338;28;20759;-70
2023/11/04 00:17:08;;;;;;;7.30;3.10;;;8.30;99.90;;;;;;4979947;28;20313;-73
2023/11/04 00:19:35;;;;;;;9.25;4.00;;;8.20;99.90;;;;;;4981010;28;20202;-70
2023/11/04 00:22:02;;;;;;;7.65;3.10;;;8.20;99.90;;;;;;4981903;28;20208;-70
2023/11/04 00:24:31;;;;;;;17.05;4.70;;;8.20;99.90;;;;;;4978567;28;20317;-73
2023/11/04 00:26:58;;;;;;;10.20;2.78;;;8.20;99.90;;;;;;4986894;28;20209;-75
2023/11/04 00:29:26;;;;;;;6.57;2.80;;;8.10;99.90;;;;;;4985051;28;20213;-73
2023/11/04 00:31:53;;;;;;;5.35;3.45;;;8.10;99.90;;;;;;4986499;28;20679;-71
2023/11/04 00:34:23;;;;;;;5.68;3.17;;;8.10;99.90;;;;;;4984609;28;20257;-74
2023/11/04 00:36:49;;;;;;;6.40;3.40;;;8.10;99.90;;;;;;4989047;28;20923;-74
2023/11/04 00:39:17;;;;;;;7.40;4.53;;;8.10;99.90;;;;;;4996085;28;20560;-70
2023/11/04 00:41:44;;;;;;;7.65;3.03;;;8.10;99.90;;;;;;4987112;28;20684;-72
2023/11/04 00:44:14;;;;;;;9.50;3.50;;;8.00;99.90;;;;;;4983984;28;20221;-72
2023/11/04 00:46:41;;;;;;;5.63;3.30;;;8.00;99.90;;;;;;4976842;28;20289;-72
2023/11/04 00:49:08;;;;;;;6.68;3.08;;;7.90;99.90;;;;;;4978947;28;20202;-72
2023/11/04 00:51:36;;;;;;;9.02;3.53;;;7.90;99.90;;;;;;4988761;28;20567;-74
2023/11/04 00:54:05;;;;;;;8.13;3.20;;;7.80;99.90;;;;;;4983679;28;20348;-73
2023/11/04 00:56:33;;;;;;;8.15;3.75;;;8.00;99.90;;;;;;4976582;28;20710;-71
2023/11/04 00:59:00;;;;;;;4.22;3.08;;;8.00;99.90;;;;;;4976359;28;20214;-71
2023/11/04 01:01:27;;;;;;;10.15;3.25;;;8.00;99.90;;;;;;4984238;28;20232;-72
2023/11/04 01:04:07;;;;;;;6.50;3.00;;;8.00;99.90;;;;;;4984978;28;20692;-75
2023/11/04 01:06:36;;;;;;;5.43;3.17;;;8.00;99.90;;;;;;4986765;28;20229;-73
2023/11/04 01:09:05;;;;;;;8.32;3.35;;;8.00;99.90;;;;;;4993802;28;20598;-72
2023/11/04 01:11:32;;;;;;;11.57;5.45;;;8.00;99.90;;;;;;4981308;28;20213;-72
2023/11/04 01:13:59;;;;;;;8.10;4.00;;;8.00;99.90;;;;;;4978010;28;20229;-71
2023/11/04 01:16:27;;;;;;;6.68;3.47;;;8.00;99.90;;;;;;4982127;28;20763;-71
2023/11/04 01:18:54;;;;;;;7.20;3.33;;;8.00;99.90;;;;;;4982386;28;20261;-71
2023/11/04 01:21:21;;;;;;;8.65;3.03;;;8.00;99.90;;;;;;4991968;28;20208;-73
2023/11/04 01:23:53;;;;;;;5.50;3.08;;;8.00;99.90;;;;;;4986901;28;20307;-71
2023/11/04 01:26:20;;;;;;;6.43;3.55;;;8.00;99.90;;;;;;4981003;28;20253;-68
2023/11/04 01:28:47;;;;;;;8.30;3.95;;;8.00;99.90;;;;;;4976923;28;20209;-72
2023/11/04 01:31:14;;;;;;;10.02;3.92;;;8.10;99.90;;;;;;4979541;28;20623;-72
2023/11/04 01:33:41;;;;;;;8.02;2.83;;;8.10;99.90;;;;;;4984256;28;20228;-71
2023/11/04 01:36:08;;;;;;;5.93;4.40;;;8.20;99.90;;;;;;4979098;28;20218;-71
2023/11/04 01:38:35;;;;;;;4.80;2.70;;;8.10;99.90;;;;;;4987644;28;20691;-70
2023/11/04 01:41:03;;;;;;;6.53;2.97;;;8.10;99.90;;;;;;4991401;28;20296;-73
2023/11/04 01:43:31;;;;;;;9.18;3.85;;;8.10;99.90;;;;;;4981690;28;20222;-71
2023/11/04 01:46:17;;;;;;;5.95;2.97;;;8.00;99.90;;;;;;4991297;28;20201;-70
2023/11/04 01:48:44;;;;;;;3.42;2.55;;;8.10;99.90;;;;;;4965891;28;20293;-71
2023/11/04 01:51:12;;;;;;;6.97;3.00;;;8.00;99.90;;;;;;4979892;28;20251;-71
2023/11/04 01:53:41;;;;;;;7.57;3.40;;;8.00;99.90;;;;;;4987771;28;20256;-72
2023/11/04 01:56:13;;;;;;;8.20;3.08;;;8.00;99.90;;;;;;4994725;28;20313;-72
2023/11/04 01:58:42;;;;;;;7.00;2.67;;;8.00;99.90;;;;;;4984089;28;20239;-72
2023/11/04 02:01:09;;;;;;;5.22;2.40;;;8.00;99.90;;;;;;4982621;28;20293;-72
2023/11/04 02:03:36;;;;;;;3.00;2.40;;;7.90;99.90;;;;;;4980157;28;20260;-73
2023/11/04 02:06:03;;;;;;;6.28;3.13;;;7.90;99.90;;;;;;4982089;28;20198;-71
2023/11/04 02:08:30;;;;;;;9.70;3.10;;;7.90;99.90;;;;;;4982286;28;20285;-74
2023/11/04 02:10:57;;;;;;;3.78;2.75;;;7.90;99.90;;;;;;4977537;28;20747;-74
2023/11/04 02:13:26;;;;;;;8.88;2.63;;;7.90;99.90;;;;;;4981397;28;20280;-72
2023/11/04 02:15:53;;;;;;;4.90;2.13;;;7.90;99.90;;;;;;4977123;28;20218;-74
2023/11/04 02:18:20;;;;;;;4.47;2.17;;;7.90;99.90;;;;;;4975809;28;20293;-71
2023/11/04 02:20:48;;;;;;;5.05;2.40;;;7.90;99.90;;;;;;4979112;28;20270;-73
2023/11/04 02:23:17;;;;;;;5.65;2.92;;;7.90;99.90;;;;;;4987175;28;20313;-73
2023/11/04 02:25:44;;;;;;;7.43;3.35;;;7.80;99.90;;;;;;4990977;28;20220;-73
2023/11/04 02:28:11;;;;;;;6.97;2.97;;;7.80;99.90;;;;;;4994935;28;20239;-71
2023/11/04 02:30:38;;;;;;;4.75;2.08;;;7.80;99.90;;;;;;4999896;28;20277;-73
2023/11/04 02:33:08;;;;;;;7.47;2.60;;;7.80;99.90;;;;;;4985978;28;20675;-71
2023/11/04 02:36:03;;;;;;;5.95;2.25;;;7.70;99.90;;;;;;4994574;28;20281;-70
2023/11/04 02:38:36;;;;;;;3.90;3.50;;;7.70;99.90;;;;;;4980199;28;20229;-72
2023/11/04 02:41:04;;;;;;;5.85;2.72;;;7.70;99.90;;;;;;4992679;28;20212;-72
2023/11/04 02:43:31;;;;;;;12.60;2.42;;;7.60;99.90;;;;;;4980153;28;20357;-72
2023/11/04 02:45:58;;;;;;;3.00;1.90;;;7.60;99.90;;;;;;4976254;28;20592;-71
2023/11/04 02:48:25;;;;;;;5.22;2.85;;;7.60;99.90;;;;;;4974911;28;20628;-71
2023/11/04 02:50:52;;;;;;;6.40;3.95;;;7.60;99.90;;;;;;4977931;28;20214;-70
2023/11/04 02:53:19;;;;;;;4.03;3.33;;;7.60;99.90;;;;;;4984843;28;20229;-71
2023/11/04 02:55:47;;;;;;;6.65;2.25;;;7.60;99.90;;;;;;4978723;28;20288;-72
2023/11/04 02:58:14;;;;;;;5.20;2.40;;;7.60;99.90;;;;;;4981465;28;20296;-71
2023/11/04 03:00:41;;;;;;;3.97;2.42;;;7.60;99.90;;;;;;4977760;28;21983;-73
2023/11/04 03:03:09;;;;;;;3.05;1.85;;;7.70;99.90;;;;;;4990588;28;20205;-69
2023/11/04 03:05:36;;;;;;;7.38;2.50;;;7.70;99.90;;;;;;4987299;28;20209;-71
2023/11/04 03:08:03;;;;;;;3.60;1.75;;;7.70;99.90;;;;;;4982447;28;20771;-71
2023/11/04 03:10:30;;;;;;;8.20;2.20;;;7.70;99.90;;;;;;4974341;28;20570;-71
2023/11/04 03:12:58;;;;;;;5.80;2.10;;;7.70;99.90;;;;;;5012410;23;20262;-81
2023/11/04 03:15:25;;;;;;;3.05;1.63;;;7.70;99.90;;;;;;5041271;28;20335;-80
2023/11/04 03:17:52;;;;;;;3.45;1.90;;;7.70;99.90;;;;;;5045515;28;20236;-80
2023/11/04 03:20:19;;;;;;;3.88;2.28;;;7.70;99.90;;;;;;5044919;28;20223;-82
2023/11/04 03:22:46;;;;;;;5.45;2.58;;;7.60;99.90;;;;;;5027415;28;20228;-80
2023/11/04 03:25:15;;;;;;;3.75;1.85;;;7.60;99.90;;;;;;5017793;28;20209;-81
2023/11/04 03:27:41;;;;;;;6.18;1.55;;;7.60;99.90;;;;;;5017917;28;20240;-81
2023/11/04 03:30:10;;;;;;;5.30;2.33;;;7.60;99.90;;;;;;5025820;28;20185;-81
2023/11/04 03:32:37;;;;;;;3.47;2.55;;;7.60;99.90;;;;;;5015223;28;20224;-81
2023/11/04 03:35:05;;;;;;;6.07;2.08;;;7.80;99.90;;;;;;5018705;28;20640;-80
2023/11/04 03:37:34;;;;;;;7.40;1.90;;;7.60;99.90;;;;;;5018946;28;20252;-81
2023/11/04 03:40:00;;;;;;;5.60;2.15;;;7.60;99.90;;;;;;5027567;28;20199;-80
2023/11/04 03:42:27;;;;;;;4.50;1.90;;;7.60;99.90;;;;;;5024105;28;20225;-80
2023/11/04 03:44:54;;;;;;;7.35;1.63;;;7.60;99.90;;;;;;5018482;28;20224;-82
2023/11/04 03:47:23;;;;;;;3.20;2.33;;;7.60;99.90;;;;;;5022725;28;20229;-83
2023/11/04 03:49:49;;;;;;;3.50;1.70;;;7.60;99.90;;;;;;5022436;28;20206;-81
2023/11/04 03:52:16;;;;;;;4.05;1.63;;;7.60;99.90;;;;;;5020033;28;20224;-80
2023/11/04 03:54:43;;;;;;;2.75;1.60;;;7.60;99.90;;;;;;5027993;28;20215;-81
2023/11/04 03:57:10;;;;;;;4.55;2.20;;;7.60;99.90;;;;;;5017765;28;20225;-80
2023/11/04 03:59:37;;;;;;;2.63;1.42;;;7.60;99.90;;;;;;5031144;28;20201;-81
2023/11/04 04:02:03;;;;;;;7.43;2.10;;;7.60;99.90;;;;;;5029003;28;20231;-81
2023/11/04 04:04:31;;;;;;;7.03;2.23;;;7.60;99.90;;;;;;5034640;28;20201;-81
2023/11/04 04:06:58;;;;;;;4.65;2.28;;;7.60;99.90;;;;;;5022961;28;21008;-81
2023/11/04 04:09:25;;;;;;;3.78;1.83;;;7.60;99.90;;;;;;5010967;28;20197;-80
2023/11/04 04:11:52;;;;;;;2.38;1.50;;;7.40;99.90;;;;;;5013231;28;20232;-82
2023/11/04 04:14:18;;;;;;;4.55;1.52;;;7.60;99.90;;;;;;5022308;28;20211;-81
2023/11/04 04:16:46;;;;;;;3.47;1.45;;;7.60;99.90;;;;;;5016126;28;20260;-82
2023/11/04 04:19:14;;;;;;;2.65;1.65;;;7.60;99.90;;;;;;5008152;28;20739;-81
2023/11/04 04:21:42;;;;;;;4.57;2.30;;;7.60;99.90;;;;;;5014425;28;20360;-82
2023/11/04 04:24:10;;;;;;;6.60;2.85;;;7.60;99.90;;;;;;5012225;28;20226;-80
2023/11/04 04:26:37;;;;;;;1.55;1.45;;;7.50;99.90;;;;;;5014378;28;20231;-80
2023/11/04 04:29:04;;;;;;;6.10;1.65;;;7.70;99.90;;;;;;5013057;28;20225;-81
2023/11/04 04:31:30;;;;;;;6.90;1.80;;;7.60;99.90;;;;;;5019969;28;20237;-81
2023/11/04 04:33:57;;;;;;;2.65;1.50;;;7.70;99.90;;;;;;5026122;28;20295;-80
2023/11/04 04:36:25;;;;;;;4.55;1.75;;;7.80;99.90;;;;;;5027038;28;20286;-81
2023/11/04 04:38:53;;;;;;;4.18;1.92;;;7.90;99.90;;;;;;5032731;28;20219;-81
2023/11/04 04:41:20;;;;;;;3.35;1.77;;;8.00;99.90;;;;;;5028920;28;20202;-80
2023/11/04 04:43:47;;;;;;;5.00;1.75;;;8.10;99.90;;;;;;5023274;28;20253;-81
2023/11/04 04:46:14;;;;;;;2.40;1.45;;;8.20;99.90;;;;;;5021083;28;20213;-80
2023/11/04 04:48:40;;;;;;;2.95;1.65;;;8.30;99.90;;;;;;5022544;28;20694;-81
2023/11/04 04:51:07;;;;;;;3.58;1.40;;;8.40;99.90;;;;;;5025536;28;20240;-80
2023/11/04 04:53:36;;;;;;;4.30;1.75;;;8.30;99.90;;;;;;5031547;28;20225;-82
2023/11/04 04:56:05;;;;;;;4.85;1.73;;;8.50;99.90;;;;;;5024881;28;20221;-82
2023/11/04 04:58:31;;;;;;;6.82;1.92;;;8.50;99.90;;;;;;5036530;28;20231;-82
2023/11/04 05:00:58;;;;;;;2.58;1.65;;;8.50;99.90;;;;;;5016904;28;20300;-81
2023/11/04 05:03:26;;;;;;;3.55;1.88;;;8.60;99.90;;;;;;5008185;28;20288;-82
2023/11/04 05:05:53;;;;;;;3.70;1.30;;;8.60;99.90;;;;;;5035025;28;20204;-82
2023/11/04 05:08:21;;;;;;;3.78;1.48;;;8.60;99.90;;;;;;5025548;28;20193;-82
2023/11/04 05:10:48;;;;;;;4.13;1.83;;;8.60;99.90;;;;;;5038949;28;20212;-82
2023/11/04 05:13:17;;;;;;;1.85;1.60;;;8.70;99.90;;;;;;5038623;28;20243;-81
2023/11/04 05:15:44;;;;;;;4.15;1.77;;;8.70;99.90;;;;;;5041657;28;20197;-80
2023/11/04 05:18:11;;;;;;;3.35;1.80;;;8.70;99.90;;;;;;5038021;28;20212;-81
2023/11/04 05:20:38;;;;;;;5.22;1.75;;;8.70;99.90;;;;;;5029962;28;20264;-79
2023/11/04 05:23:05;;;;;;;4.50;2.08;;;8.70;99.90;;;;;;5036918;28;20213;-81
2023/11/04 05:25:31;;;;;;;2.10;1.48;;;8.80;99.90;;;;;;5032815;28;20268;-79
2023/11/04 05:27:59;;;;;;;2.38;1.30;;;8.80;99.90;;;;;;5030265;28;20213;-81
2023/11/04 05:30:27;;;;;;;5.03;1.40;;;8.80;99.90;;;;;;5034466;28;20204;-82
2023/11/04 05:32:56;;;;;;;7.28;2.05;;;8.90;99.90;;;;;;5026858;28;20292;-80
2023/11/04 05:35:22;;;;;;;3.38;1.52;;;8.90;99.90;;;;;;5036047;28;20197;-80
2023/11/04 05:38:00;;;;;;;5.22;1.50;;;8.90;99.90;;;;;;5036600;28;20249;-82
2023/11/04 05:40:28;;;;;;;1.85;1.40;;;9.00;99.90;;;;;;5034945;28;20985;-82
2023/11/04 05:43:15;;;;;;;4.85;1.50;;;8.90;99.90;;;;;;5026603;28;20252;-82
2023/11/04 05:45:44;;;;;;;5.90;1.23;;;9.00;99.90;;;;;;5015405;28;20213;-83
2023/11/04 05:48:11;;;;;;;1.95;1.48;;;9.20;99.90;;;;;;5022344;28;20198;-80
2023/11/04 05:50:38;;;;;;;1.55;1.00;;;9.00;99.90;;;;;;5025401;28;20231;-81
2023/11/04 05:53:09;;;;;;;1.95;1.20;;;9.10;99.90;;;;;;5022822;28;20223;-82
2023/11/04 05:55:36;;;;;;;1.92;1.00;;;9.00;99.90;;;;;;5014948;28;20251;-81
2023/11/04 05:58:04;;;;;;;1.73;1.10;;;9.00;99.90;;;;;;5031269;28;20204;-81
2023/11/04 06:00:31;;;;;;;4.88;2.00;;;8.90;99.90;;;;;;5022952;28;20679;-80
2023/11/04 06:02:59;;;;;;;1.90;1.13;;;9.00;99.90;;;;;;5021688;28;20249;-81
2023/11/04 06:05:29;;;;;;;1.30;0.93;;;9.00;99.90;;;;;;5014359;28;20221;-82
2023/11/04 06:07:55;;;;;;;3.00;1.27;;;9.10;99.90;;;;;;5023061;28;20215;-82
2023/11/04 06:10:22;;;;;;;2.15;1.20;;;9.10;99.90;;;;;;5013214;28;20229;-81
2023/11/04 06:12:49;;;;;;;2.72;1.55;;;9.10;99.90;;;;;;5019254;28;20293;-81
2023/11/04 06:15:17;;;;;;;5.20;1.98;;;9.20;99.90;;;;;;5019676;28;20207;-82
2023/11/04 06:17:44;;;;;;;2.10;1.20;;;9.20;99.90;;;;;;5017195;28;20301;-81
2023/11/04 06:20:18;;;;;;;2.40;1.55;;;9.20;99.90;;;;;;5019624;28;20201;-81
2023/11/04 06:22:46;;;;;;;1.65;1.00;;;9.20;99.90;;;;;;5009066;28;20226;-82
2023/11/04 06:28:53;;;;;;;6.35;1.20;;;9.10;99.90;;;;;;5026328;28;20300;-81
2023/11/04 06:31:23;;;;;;;3.60;1.27;;;9.20;99.90;;;;;;5019219;28;20198;-86
2023/11/04 06:33:59;;;;;;;2.35;1.60;;;9.30;99.90;;;;;;5023533;28;20215;-87
2023/11/04 06:36:52;;;;;;;5.10;1.20;;;9.30;99.90;;;;;;5022560;28;20722;-88
2023/11/04 06:39:19;;;;;;;3.47;1.08;;;9.30;99.90;;;;;;5017999;28;20228;-87
2023/11/04 06:41:47;;;;;;;1.52;1.20;;;9.30;99.90;;;;;;5018652;28;20229;-80
2023/11/04 06:47:36;;;;;;;2.53;1.38;;;9.30;99.90;;;;;;5014294;28;20231;-81
2023/11/04 06:50:04;;;;;;;4.80;1.63;;;9.30;99.90;;;;;;5022274;28;20212;-82
2023/11/04 06:59:17;;;;;;;5.47;1.00;;;9.40;99.90;;;;;;5025427;28;20191;-83
2023/11/04 07:01:49;;;;;;;2.60;1.10;;;9.40;99.90;;;;;;5024904;28;20237;-83
2023/11/04 07:04:34;;;;;;;3.90;1.55;;;9.40;99.90;;;;;;5021294;28;20284;-84
2023/11/04 07:07:37;;;;;;;2.88;1.48;;;9.40;99.90;;;;;;5024780;28;20196;-85
2023/11/04 07:17:29;;;;;;;1.92;1.38;;;9.50;99.90;;;;;;4938197;29;20757;-84
2023/11/04 07:46:40;;;;;;;3.10;1.00;;;10.00;99.90;;;;;;4885345;28;20223;-82
2023/11/04 07:49:07;;;;;;;2.42;1.10;;;9.90;99.90;;;;;;5016362;28;20265;-81
2023/11/04 07:51:36;;;;;;;1.38;1.02;;;10.10;99.90;;;;;;5018898;28;20611;-81
2023/11/04 07:54:03;;;;;;;3.33;1.35;;;10.00;99.90;;;;;;5021461;28;20205;-82
2023/11/04 07:56:31;;;;;;;1.70;0.90;;;10.10;99.90;;;;;;5014359;28;20665;-83
2023/11/04 07:58:58;;;;;;;1.40;0.80;;;10.20;99.90;;;;;;5023141;28;20240;-84
2023/11/04 08:01:27;;;;;;;1.58;1.05;;;10.30;99.90;;;;;;5019091;28;20205;-84
2023/11/04 08:03:58;;;;;;;1.27;0.80;;;10.40;99.90;;;;;;5015676;28;20205;-86
2023/11/04 08:06:54;;;;;;;2.40;1.05;;;10.40;99.90;;;;;;5010356;28;20198;-82
2023/11/04 08:09:21;;;;;;;2.42;1.40;;;10.40;99.90;;;;;;5015986;28;20206;-81
2023/11/04 08:11:48;;;;;;;4.90;1.75;;;10.50;99.90;;;;;;5026729;28;20217;-82
2023/11/04 08:14:56;;;;;;;1.75;0.90;;;10.60;99.90;;;;;;5018538;28;20215;-89
2023/11/04 08:17:26;;;;;;;2.30;0.90;;;11.20;99.90;;;;;;5015672;28;20704;-86
2023/11/04 08:19:58;;;;;;;1.70;1.10;;;12.00;99.90;;;;;;5030691;28;20214;-88
2023/11/04 08:22:25;;;;;;;1.45;1.35;;;12.20;99.90;;;;;;5032550;23;20221;-71
2023/11/04 08:24:52;;;;;;;2.08;0.88;;;12.30;99.90;;;;;;5014739;28;20593;-70
2023/11/04 08:27:19;;;;;;;2.00;1.70;;;12.10;99.90;;;;;;5009612;28;20585;-70
2023/11/04 08:29:46;;;;;;;1.83;1.25;;;11.90;99.90;;;;;;5012069;28;20292;-73
2023/11/04 08:32:13;;;;;;;1.98;1.25;;;11.50;99.90;;;;;;5008198;28;20660;-71
2023/11/04 08:34:40;;;;;;;1.58;1.15;;;11.40;99.90;;;;;;5001675;28;20270;-71
2023/11/04 08:37:09;;;;;;;5.43;1.15;;;11.30;99.90;;;;;;5005729;28;20258;-72
2023/11/04 08:39:36;;;;;;;3.58;1.55;;;11.10;99.90;;;;;;5007938;28;20294;-73
2023/11/04 08:42:06;;;;;;;3.70;1.98;;;11.00;99.90;;;;;;5007836;28;20214;-71
2023/11/04 08:44:33;;;;;;;2.30;1.58;;;10.90;99.90;;;;;;5002049;28;20708;-70
2023/11/04 08:47:00;;;;;;;2.45;1.27;;;10.80;99.90;;;;;;5010166;28;20207;-69
2023/11/04 08:49:27;;;;;;;1.95;1.40;;;10.70;99.90;;;;;;5010272;28;20225;-69
2023/11/04 08:51:56;;;;;;;1.50;1.10;;;10.70;99.90;;;;;;5009137;28;20213;-70
2023/11/04 08:54:24;;;;;;;3.17;1.45;;;10.70;99.90;;;;;;4997936;28;20732;-73
2023/11/04 08:56:51;;;;;;;5.78;1.75;;;10.80;99.90;;;;;;5009883;28;20303;-71
2023/11/04 08:59:18;;;;;;;5.68;1.50;;;10.80;99.90;;;;;;5000099;28;20227;-70
2023/11/04 09:01:45;;;;;;;1.38;1.10;;;10.80;99.90;;;;;;5001622;28;20692;-72
2023/11/04 09:04:12;;;;;;;3.25;1.25;;;10.90;99.90;;;;;;5002978;28;20234;-71
2023/11/04 09:06:39;;;;;;;2.63;1.05;;;11.00;99.90;;;;;;5007954;28;20303;-74
2023/11/04 09:09:07;;;;;;;2.25;1.27;;;11.00;99.90;;;;;;5007771;28;20279;-75
2023/11/04 09:11:35;;;;;;;7.45;2.10;;;10.90;99.90;;;;;;5007631;28;20202;-71
2023/11/04 09:14:04;;;;;;;2.75;1.85;;;10.90;99.90;;;;;;5024550;23;20227;-67
2023/11/04 09:16:31;;;;;;;2.17;0.90;;;10.90;99.90;;;;;;4986610;28;20291;-67
2023/11/04 09:19:01;;;;;;;1.98;1.40;;;10.70;99.90;;;;;;4990414;28;20319;-69
2023/11/04 09:21:28;;;;;;;3.40;1.33;;;10.90;99.90;;;;;;4987834;28;20227;-69
2023/11/04 09:23:54;;;;;;;1.35;0.90;;;11.00;99.90;;;;;;4989545;28;20243;-69
2023/11/04 09:26:21;;;;;;;2.10;1.20;;;11.10;99.90;;;;;;4984136;28;20665;-68
2023/11/04 09:28:49;;;;;;;3.17;1.30;;;11.20;99.90;;;;;;4992632;28;20215;-66
2023/11/04 09:31:16;;;;;;;2.75;1.00;;;11.40;99.90;;;;;;5007121;28;20419;-68
2023/11/04 09:33:43;;;;;;;2.60;1.33;;;11.60;99.90;;;;;;4999665;28;20643;-64
2023/11/04 09:36:12;;;;;;;4.75;1.48;;;11.70;99.90;;;;;;4991764;28;20680;-65
2023/11/04 09:38:39;;;;;;;1.35;1.10;;;11.70;99.90;;;;;;5005482;28;20278;-64
2023/11/04 09:41:07;;;;;;;1.92;1.17;;;11.80;99.90;;;;;;4998420;28;20211;-69
2023/11/04 09:43:34;;;;;;;1.85;1.10;;;11.80;99.90;;;;;;4992691;28;20256;-69
2023/11/04 09:46:05;;;;;;;4.70;1.35;;;11.70;99.90;;;;;;4983502;28;20284;-64
2023/11/04 09:48:32;;;;;;;1.83;1.10;;;11.90;99.90;;;;;;4998596;28;20231;-64
2023/11/04 09:51:02;;;;;;;1.70;1.15;;;12.20;99.90;;;;;;4993175;28;20232;-65
2023/11/04 09:53:32;;;;;;;1.52;0.80;;;12.50;99.90;;;;;;4983993;28;20312;-65
2023/11/04 09:56:01;;;;;;;1.77;1.35;;;12.80;99.90;;;;;;4993245;28;20206;-63
2023/11/04 09:58:29;;;;;;;2.97;1.10;;;13.20;99.90;;;;;;4979960;28;20265;-65
2023/11/04 10:00:56;;;;;;;3.03;1.58;;;13.60;99.90;;;;;;4989927;28;20206;-65
2023/11/04 10:03:24;;;;;;;2.05;1.13;;;14.00;99.90;;;;;;4985889;28;20242;-64
2023/11/04 10:05:52;;;;;;;2.38;1.10;;;13.90;99.90;;;;;;5005062;28;20209;-79
2023/11/04 10:08:23;;;;;;;1.85;1.20;;;14.20;99.90;;;;;;5010617;28;20251;-80
2023/11/04 10:10:50;;;;;;;2.75;1.15;;;14.70;99.90;;;;;;4999620;28;20191;-80
2023/11/04 10:13:17;;;;;;;1.60;1.08;;;14.40;99.90;;;;;;5018186;28;20239;-80
2023/11/04 10:15:45;;;;;;;2.70;1.08;;;14.10;99.90;;;;;;5004299;28;20237;-80
2023/11/04 10:18:14;;;;;;;2.70;1.13;;;13.50;99.90;;;;;;5009826;28;20226;-80
2023/11/04 10:21:01;;;;;;;2.72;1.88;;;13.40;99.90;;;;;;5004036;28;20198;-79
2023/11/04 10:23:29;;;;;;;4.65;1.15;;;13.30;99.90;;;;;;5014961;28;20304;-80
2023/11/04 10:26:49;;;;;;;2.53;1.20;;;13.10;99.90;;;;;;5013127;28;20198;-81
2023/11/04 10:29:16;;;;;;;1.52;1.17;;;13.20;99.90;;;;;;4926235;29;20200;-81
2023/11/04 10:31:43;;;;;;;4.22;1.20;;;13.10;99.90;;;;;;4999529;28;20213;-81
2023/11/04 10:38:15;;;;;;;2.42;1.00;;;13.40;99.90;;;;;;4988802;28;20213;-83
2023/11/04 10:41:03;;;;;;;1.00;0.75;;;13.60;99.90;;;;;;5000791;28;20283;-81
2023/11/04 10:43:46;;;;;;;3.40;1.10;;;13.80;99.90;;;;;;4983923;28;20225;-78
2023/11/04 10:49:47;;;;;;;3.15;1.15;;;13.70;99.90;;;;;;4942109;28;20219;-82
2023/11/04 10:52:53;;;;;;;5.35;1.30;;;13.60;99.90;;;;;;5001541;28;20229;-81
2023/11/04 10:55:52;;;;;;;1.85;1.45;;;13.50;99.90;;;;;;5000488;28;20197;-81
2023/11/04 10:58:24;;;;;;;2.28;1.00;;;13.50;99.90;;;;;;4983466;28;20229;-79
2023/11/04 11:00:52;;;;;;;2.30;1.05;;;13.40;99.90;;;;;;4993618;28;20213;-79
2023/11/04 11:03:20;;;;;;;4.22;0.90;;;13.50;99.90;;;;;;4990756;28;20236;-81
2023/11/04 11:16:31;;;;;;;2.65;1.33;;;13.60;99.90;;;;;;4992741;28;20249;-86
2023/11/04 11:25:44;;;;;;;1.10;0.90;;;13.80;99.90;;;;;;5004003;28;20240;-69
2023/11/04 11:28:19;;;;;;;1.42;1.02;;;13.80;99.90;;;;;;4988058;28;20249;-69
2023/11/04 11:30:47;;;;;;;3.33;1.73;;;13.90;99.90;;;;;;4985601;28;20644;-70
2023/11/04 11:33:14;;;;;;;5.60;2.00;;;13.90;99.90;;;;;;4983459;28;20581;-72
2023/11/04 11:35:55;;;;;;;1.73;1.20;;;13.90;99.90;;;;;;4991712;28;20229;-69
2023/11/04 11:38:22;;;;;;;2.28;1.00;;;14.20;99.90;;;;;;4989081;28;20235;-70
2023/11/04 11:40:50;;;;;;;2.60;1.30;;;14.10;99.90;;;;;;4989141;28;20203;-69
2023/11/04 11:43:18;;;;;;;2.85;1.27;;;14.10;99.90;;;;;;4988276;28;20321;-69
2023/11/04 11:45:45;;;;;;;2.15;0.88;;;13.90;99.90;;;;;;4989991;28;20508;-71
2023/11/04 11:48:12;;;;;;;1.50;1.10;;;13.80;99.90;;;;;;4989543;28;20300;-68
2023/11/04 11:50:41;;;;;;;2.65;1.50;;;13.80;99.90;;;;;;4987491;28;20663;-69
2023/11/04 11:53:08;;;;;;;2.00;1.20;;;13.60;99.90;;;;;;4991582;28;20257;-67
2023/11/04 11:55:35;;;;;;;1.52;1.42;;;13.50;99.90;;;;;;4997761;28;20489;-70
2023/11/04 11:58:03;;;;;;;2.20;1.30;;;13.30;99.90;;;;;;5000390;28;20232;-68
2023/11/04 12:00:30;;;;;;;1.95;1.00;;;13.30;99.90;;;;;;4997927;28;20293;-68
2023/11/04 12:02:57;;;;;;;1.55;1.25;;;13.10;99.90;;;;;;4993180;28;20232;-68
2023/11/04 12:05:24;;;;;;;1.98;1.38;;;13.10;99.90;;;;;;4983936;28;20212;-67
2023/11/04 12:07:51;;;;;;;3.75;2.13;;;13.00;99.90;;;;;;4981538;28;20245;-67
2023/11/04 12:10:18;;;;;;;3.05;1.95;;;13.00;99.90;;;;;;4983665;28;20224;-69
2023/11/04 12:12:45;;;;;;;2.65;1.10;;;12.90;99.90;;;;;;4996563;28;20235;-68
2023/11/04 12:15:14;;;;;;;2.50;1.38;;;12.90;99.90;;;;;;4983685;28;20289;-68
2023/11/04 12:17:41;;;;;;;1.95;1.00;;;12.90;99.90;;;;;;4998097;28;20577;-68
2023/11/04 12:20:10;;;;;;;2.67;1.70;;;13.00;99.90;;;;;;4989553;28;20317;-69
2023/11/04 12:22:37;;;;;;;2.97;1.15;;;13.10;99.90;;;;;;4992006;28;20247;-68
2023/11/04 12:25:07;;;;;;;2.58;1.20;;;13.10;99.90;;;;;;5001929;28;20225;-78
2023/11/04 12:27:45;;;;;;;3.83;1.25;;;13.20;99.90;;;;;;5018303;28;20237;-85
2023/11/04 12:30:15;;;;;;;2.58;1.73;;;13.40;99.90;;;;;;5014030;28;20245;-79
2023/11/04 12:36:06;;;;;;;1.50;1.10;;;13.40;99.90;;;;;;4994376;28;20245;-74
2023/11/04 12:38:33;;;;;;;1.50;1.35;;;13.30;99.90;;;;;;4992829;28;20193;-71
2023/11/04 12:41:01;;;;;;;2.08;1.30;;;13.30;99.90;;;;;;4995661;28;20217;-74
2023/11/04 12:43:29;;;;;;;2.40;1.25;;;13.20;99.90;;;;;;4985539;28;20226;-73
2023/11/04 12:45:59;;;;;;;1.48;1.13;;;13.40;99.90;;;;;;4976298;28;20748;-73
2023/11/04 12:48:26;;;;;;;2.40;1.25;;;13.20;99.90;;;;;;4971956;28;20221;-74
2023/11/04 12:50:53;;;;;;;3.72;1.40;;;13.20;99.90;;;;;;4973952;28;20293;-71
2023/11/04 12:53:22;;;;;;;2.45;1.15;;;13.20;99.90;;;;;;4974875;28;20226;-73
2023/11/04 12:55:50;;;;;;;2.38;1.77;;;13.10;99.90;;;;;;4974638;28;20214;-73
2023/11/04 12:58:17;;;;;;;2.30;1.38;;;13.00;99.90;;;;;;4975871;28;20676;-73
2023/11/04 13:00:44;;;;;;;1.60;1.30;;;13.00;99.90;;;;;;4973063;28;20314;-75
2023/11/04 13:03:13;;;;;;;2.20;1.15;;;12.90;99.90;;;;;;4975323;28;20613;-73
2023/11/04 13:05:40;;;;;;;2.15;1.50;;;12.80;99.90;;;;;;4972310;28;20257;-72
2023/11/04 13:08:07;;;;;;;2.50;1.33;;;12.70;99.90;;;;;;4975201;28;20228;-70
2023/11/04 13:10:35;;;;;;;1.40;0.90;;;12.70;99.90;;;;;;4975247;28;20229;-72
2023/11/04 13:13:02;;;;;;;1.80;1.23;;;12.60;99.90;;;;;;4974918;28;20288;-72
2023/11/04 13:15:29;;;;;;;3.83;1.27;;;12.50;99.90;;;;;;4974515;28;20254;-73
2023/11/04 13:17:56;;;;;;;2.53;1.45;;;12.40;99.90;;;;;;4975745;28;20216;-72
2023/11/04 13:20:24;;;;;;;1.58;1.05;;;12.40;99.90;;;;;;4972893;28;20304;-72
2023/11/04 13:22:52;;;;;;;1.67;1.35;;;12.40;99.90;;;;;;4972989;28;20242;-70
2023/11/04 13:25:19;;;;;;;5.10;1.60;;;12.40;99.90;;;;;;4981337;28;20205;-71
2023/11/04 13:27:48;;;;;;;1.70;1.02;;;12.40;99.90;;;;;;4974169;28;20216;-72
2023/11/04 13:30:16;;;;;;;1.20;1.10;;;12.30;99.90;;;;;;4975605;28;20203;-73
2023/11/04 13:32:47;;;;;;;2.33;1.08;;;12.40;99.90;;;;;;4973882;28;20695;-73
2023/11/04 13:35:14;;;;;;;2.45;1.00;;;12.30;99.90;;;;;;4975387;28;20708;-74
2023/11/04 13:37:42;;;;;;;2.03;1.00;;;12.30;99.90;;;;;;4970080;28;20289;-75
2023/11/04 13:40:10;;;;;;;4.93;1.42;;;12.30;99.90;;;;;;4968271;28;20230;-72
2023/11/04 13:42:37;;;;;;;1.52;1.10;;;12.20;99.90;;;;;;4965962;28;20230;-75
2023/11/04 13:45:06;;;;;;;4.93;1.33;;;12.20;99.90;;;;;;4973863;28;20642;-73
2023/11/04 13:47:35;;;;;;;3.15;1.27;;;12.10;99.90;;;;;;4972052;28;20570;-74
2023/11/04 13:50:04;;;;;;;2.10;1.30;;;12.20;99.90;;;;;;4976482;28;20217;-73
2023/11/04 13:52:31;;;;;;;1.90;1.25;;;12.10;99.90;;;;;;4970882;28;20220;-72
2023/11/04 13:55:00;;;;;;;4.03;1.67;;;12.10;99.90;;;;;;4970669;28;20246;-73
2023/11/04 13:57:29;;;;;;;3.17;1.75;;;12.20;99.90;;;;;;4967433;28;20213;-73
2023/11/04 13:59:56;;;;;;;1.23;1.08;;;12.20;99.90;;;;;;4974330;28;20224;-72
2023/11/04 14:02:26;;;;;;;2.95;1.77;;;12.20;99.90;;;;;;4971075;28;20237;-74
2023/11/04 14:04:55;;;;;;;2.42;1.40;;;12.20;99.90;;;;;;4971487;28;20225;-73
2023/11/04 14:07:22;;;;;;;4.45;1.40;;;12.20;99.90;;;;;;4974918;28;20247;-73
2023/11/04 14:09:49;;;;;;;2.25;1.40;;;12.20;99.90;;;;;;4975272;28;20731;-76
2023/11/04 14:12:19;;;;;;;2.85;2.15;;;12.20;99.90;;;;;;4971541;28;20639;-73
2023/11/04 14:14:46;;;;;;;1.30;1.20;;;12.30;99.90;;;;;;4966910;28;20308;-73
2023/11/04 14:17:13;;;;;;;2.53;1.25;;;12.20;99.90;;;;;;4970815;28;20210;-73
2023/11/04 14:19:40;;;;;;;1.83;1.15;;;12.20;99.90;;;;;;4974563;28;20289;-74